sensor_id;sensor_type;location;lat;lon;timestamp;pressure;altitude;pressure_sealevel;temperature;humidity
76406;BME280;65234;50.044;19.258;2022-11-15T00:00:07;99140.03;;;4.15;100.00
76406;BME280;65234;50.044;19.258;2022-11-15T00:02:53;99141.75;;;4.20;100.00
76406;BME280;65234;50.044;19.258;2022-11-15T00:05:19;99139.00;;;4.20;100.00
76406;BME280;65234;50.044;19.258;2022-11-15T00:07:45;99135.47;;;4.19;100.00
76406;BME280;65234;50.044;19.258;2022-11-15T00:10:11;99136.41;;;4.11;100.00
76406;BME280;65234;50.044;19.258;2022-11-15T00:12:36;99138.34;;;4.11;100.00
76406;BME280;65234;50.044;19.258;2022-11-15T00:15:02;99130.56;;;4.13;100.00
76406;BME280;65234;50.044;19.258;2022-11-15T00:17:30;99138.00;;;4.12;100.00
76406;BME280;65234;50.044;19.258;2022-11-15T00:19:55;99128.16;;;4.11;100.00
76406;BME280;65234;50.044;19.258;2022-11-15T00:22:21;99130.00;;;4.07;100.00
76406;BME280;65234;50.044;19.258;2022-11-15T00:24:47;99140.19;;;4.07;100.00
76406;BME280;65234;50.044;19.258;2022-11-15T00:27:13;99131.16;;;4.06;100.00
76406;BME280;65234;50.044;19.258;2022-11-15T00:29:38;99130.69;;;4.04;100.00
76406;BME280;65234;50.044;19.258;2022-11-15T00:32:04;99132.84;;;4.11;100.00
76406;BME280;65234;50.044;19.258;2022-11-15T00:34:31;99130.91;;;4.11;100.00
76406;BME280;65234;50.044;19.258;2022-11-15T00:36:57;99140.53;;;4.05;100.00
76406;BME280;65234;50.044;19.258;2022-11-15T00:39:23;99136.19;;;4.04;100.00
76406;BME280;65234;50.044;19.258;2022-11-15T00:41:49;99131.81;;;4.15;100.00
76406;BME280;65234;50.044;19.258;2022-11-15T00:44:14;99133.19;;;4.21;100.00
76406;BME280;65234;50.044;19.258;2022-11-15T00:46:40;99131.69;;;4.24;100.00
76406;BME280;65234;50.044;19.258;2022-11-15T00:49:06;99129.03;;;4.27;100.00
76406;BME280;65234;50.044;19.258;2022-11-15T00:51:33;99124.84;;;4.30;100.00
76406;BME280;65234;50.044;19.258;2022-11-15T00:53:59;99125.28;;;4.20;100.00
76406;BME280;65234;50.044;19.258;2022-11-15T00:56:24;99120.63;;;4.20;100.00
76406;BME280;65234;50.044;19.258;2022-11-15T00:58:50;99118.34;;;4.22;100.00
76406;BME280;65234;50.044;19.258;2022-11-15T01:01:16;99117.44;;;4.18;100.00
76406;BME280;65234;50.044;19.258;2022-11-15T01:03:41;99114.81;;;4.22;100.00
76406;BME280;65234;50.044;19.258;2022-11-15T01:06:08;99111.78;;;4.27;100.00
76406;BME280;65234;50.044;19.258;2022-11-15T01:08:35;99112.25;;;4.29;100.00
76406;BME280;65234;50.044;19.258;2022-11-15T01:11:02;99123.31;;;4.33;100.00
76406;BME280;65234;50.044;19.258;2022-11-15T01:13:30;99123.44;;;4.36;100.00
76406;BME280;65234;50.044;19.258;2022-11-15T01:15:56;99125.38;;;4.36;100.00
76406;BME280;65234;50.044;19.258;2022-11-15T01:18:21;99123.66;;;4.31;100.00
76406;BME280;65234;50.044;19.258;2022-11-15T01:20:47;99118.53;;;4.30;100.00
76406;BME280;65234;50.044;19.258;2022-11-15T01:23:13;99117.66;;;4.25;100.00
76406;BME280;65234;50.044;19.258;2022-11-15T01:25:40;99124.72;;;4.26;100.00
76406;BME280;65234;50.044;19.258;2022-11-15T01:28:06;99120.38;;;4.25;100.00
76406;BME280;65234;50.044;19.258;2022-11-15T01:30:31;99110.13;;;4.22;100.00
76406;BME280;65234;50.044;19.258;2022-11-15T01:32:57;99113.63;;;4.23;100.00
76406;BME280;65234;50.044;19.258;2022-11-15T01:35:23;99110.56;;;4.24;100.00
76406;BME280;65234;50.044;19.258;2022-11-15T01:37:49;99103.13;;;4.25;100.00
76406;BME280;65234;50.044;19.258;2022-11-15T01:40:15;99095.72;;;4.25;100.00
76406;BME280;65234;50.044;19.258;2022-11-15T01:42:42;99103.56;;;4.27;100.00
76406;BME280;65234;50.044;19.258;2022-11-15T01:45:12;99100.50;;;4.28;100.00
76406;BME280;65234;50.044;19.258;2022-11-15T01:47:40;99101.63;;;4.27;100.00
76406;BME280;65234;50.044;19.258;2022-11-15T01:50:11;99097.97;;;4.23;100.00
76406;BME280;65234;50.044;19.258;2022-11-15T01:52:39;99094.09;;;4.24;100.00
76406;BME280;65234;50.044;19.258;2022-11-15T01:55:09;99074.34;;;4.19;100.00
76406;BME280;65234;50.044;19.258;2022-11-15T01:57:37;99078.59;;;4.16;100.00
76406;BME280;65234;50.044;19.258;2022-11-15T02:00:05;99081.78;;;4.18;100.00
76406;BME280;65234;50.044;19.258;2022-11-15T02:02:31;99077.44;;;4.17;100.00
76406;BME280;65234;50.044;19.258;2022-11-15T02:04:58;99071.06;;;4.13;100.00
76406;BME280;65234;50.044;19.258;2022-11-15T02:07:23;99066.38;;;4.14;100.00
76406;BME280;65234;50.044;19.258;2022-11-15T02:09:50;99063.44;;;4.07;100.00
76406;BME280;65234;50.044;19.258;2022-11-15T02:12:19;99064.59;;;4.06;100.00
76406;BME280;65234;50.044;19.258;2022-11-15T02:14:48;99053.66;;;3.94;100.00
76406;BME280;65234;50.044;19.258;2022-11-15T02:17:27;99057.44;;;3.89;100.00
76406;BME280;65234;50.044;19.258;2022-11-15T02:20:13;99054.00;;;3.92;100.00
76406;BME280;65234;50.044;19.258;2022-11-15T02:22:57;99054.69;;;3.89;100.00
76406;BME280;65234;50.044;19.258;2022-11-15T02:25:38;99050.00;;;3.90;100.00
76406;BME280;65234;50.044;19.258;2022-11-15T02:28:28;99049.00;;;3.82;100.00
76406;BME280;65234;50.044;19.258;2022-11-15T02:31:00;99043.16;;;3.84;100.00
76406;BME280;65234;50.044;19.258;2022-11-15T02:33:31;99046.25;;;3.82;100.00
76406;BME280;65234;50.044;19.258;2022-11-15T02:36:01;99051.63;;;3.78;100.00
76406;BME280;65234;50.044;19.258;2022-11-15T02:38:33;99043.66;;;3.73;100.00
76406;BME280;65234;50.044;19.258;2022-11-15T02:41:03;99044.44;;;3.74;100.00
76406;BME280;65234;50.044;19.258;2022-11-15T02:43:36;99040.81;;;3.70;100.00
76406;BME280;65234;50.044;19.258;2022-11-15T02:46:08;99032.00;;;3.64;100.00
76406;BME280;65234;50.044;19.258;2022-11-15T02:48:36;99029.63;;;3.63;100.00
76406;BME280;65234;50.044;19.258;2022-11-15T02:51:02;99023.38;;;3.62;100.00
76406;BME280;65234;50.044;19.258;2022-11-15T02:53:28;99019.34;;;3.60;100.00
76406;BME280;65234;50.044;19.258;2022-11-15T02:55:56;99030.22;;;3.32;100.00
76406;BME280;65234;50.044;19.258;2022-11-15T02:58:57;99022.69;;;3.41;100.00
76406;BME280;65234;50.044;19.258;2022-11-15T03:01:38;99013.25;;;3.39;100.00
76406;BME280;65234;50.044;19.258;2022-11-15T03:04:17;99007.88;;;3.42;100.00
76406;BME280;65234;50.044;19.258;2022-11-15T03:06:51;99010.72;;;3.33;100.00
76406;BME280;65234;50.044;19.258;2022-11-15T03:09:25;99003.09;;;3.39;100.00
76406;BME280;65234;50.044;19.258;2022-11-15T03:11:58;99006.03;;;3.46;100.00
76406;BME280;65234;50.044;19.258;2022-11-15T03:14:29;99009.69;;;3.50;100.00
76406;BME280;65234;50.044;19.258;2022-11-15T03:17:04;99007.88;;;3.42;100.00
76406;BME280;65234;50.044;19.258;2022-11-15T03:19:33;98998.75;;;3.26;100.00
76406;BME280;65234;50.044;19.258;2022-11-15T03:22:06;99009.13;;;3.08;100.00
76406;BME280;65234;50.044;19.258;2022-11-15T03:24:36;99009.13;;;3.08;100.00
76406;BME280;65234;50.044;19.258;2022-11-15T03:27:05;99008.47;;;3.11;100.00
76406;BME280;65234;50.044;19.258;2022-11-15T03:29:33;99000.69;;;3.13;100.00
76406;BME280;65234;50.044;19.258;2022-11-15T03:32:06;98997.41;;;3.20;100.00
76406;BME280;65234;50.044;19.258;2022-11-15T03:34:38;99000.38;;;3.15;100.00
76406;BME280;65234;50.044;19.258;2022-11-15T03:37:05;98997.06;;;3.21;100.00
76406;BME280;65234;50.044;19.258;2022-11-15T03:39:32;98983.94;;;3.27;100.00
76406;BME280;65234;50.044;19.258;2022-11-15T03:42:07;98970.69;;;3.17;100.00
76406;BME280;65234;50.044;19.258;2022-11-15T03:44:40;98966.84;;;3.18;100.00
76406;BME280;65234;50.044;19.258;2022-11-15T03:47:12;98964.66;;;3.23;100.00
76406;BME280;65234;50.044;19.258;2022-11-15T03:49:44;98961.25;;;3.14;100.00
76406;BME280;65234;50.044;19.258;2022-11-15T03:52:12;98962.28;;;3.10;100.00
76406;BME280;65234;50.044;19.258;2022-11-15T03:54:47;98959.53;;;3.22;100.00
76406;BME280;65234;50.044;19.258;2022-11-15T03:57:13;98955.66;;;3.23;100.00
76406;BME280;65234;50.044;19.258;2022-11-15T03:59:39;98948.25;;;3.11;100.00
76406;BME280;65234;50.044;19.258;2022-11-15T04:02:05;98943.44;;;3.08;100.00
76406;BME280;65234;50.044;19.258;2022-11-15T04:04:32;98948.81;;;3.05;100.00
76406;BME280;65234;50.044;19.258;2022-11-15T04:06:58;98948.81;;;3.05;100.00
76406;BME280;65234;50.044;19.258;2022-11-15T04:09:23;98944.41;;;3.00;100.00
76406;BME280;65234;50.044;19.258;2022-11-15T04:11:49;98946.88;;;2.93;100.00
76406;BME280;65234;50.044;19.258;2022-11-15T04:14:15;98949.63;;;2.93;100.00
76406;BME280;65234;50.044;19.258;2022-11-15T04:16:40;98937.88;;;2.93;100.00
76406;BME280;65234;50.044;19.258;2022-11-15T04:19:06;98928.09;;;2.92;100.00
76406;BME280;65234;50.044;19.258;2022-11-15T04:21:33;98931.84;;;2.87;100.00
76406;BME280;65234;50.044;19.258;2022-11-15T04:23:59;98927.75;;;2.81;100.00
76406;BME280;65234;50.044;19.258;2022-11-15T04:26:24;98922.84;;;2.74;100.00
76406;BME280;65234;50.044;19.258;2022-11-15T04:28:50;98917.84;;;2.76;100.00
76406;BME280;65234;50.044;19.258;2022-11-15T04:31:16;98918.88;;;2.72;100.00
76406;BME280;65234;50.044;19.258;2022-11-15T04:33:42;98916.69;;;2.77;100.00
76406;BME280;65234;50.044;19.258;2022-11-15T04:36:07;98915.22;;;2.80;100.00
76406;BME280;65234;50.044;19.258;2022-11-15T04:38:35;98917.97;;;2.80;100.00
76406;BME280;65234;50.044;19.258;2022-11-15T04:41:01;98915.22;;;2.80;100.00
76406;BME280;65234;50.044;19.258;2022-11-15T04:43:27;98910.53;;;2.80;100.00
76406;BME280;65234;50.044;19.258;2022-11-15T04:45:53;98901.88;;;2.78;100.00
76406;BME280;65234;50.044;19.258;2022-11-15T04:48:19;98899.25;;;2.82;100.00
76406;BME280;65234;50.044;19.258;2022-11-15T04:50:47;98906.13;;;2.76;100.00
76406;BME280;65234;50.044;19.258;2022-11-15T04:53:13;98896.75;;;2.77;100.00
76406;BME280;65234;50.044;19.258;2022-11-15T04:55:40;98895.59;;;2.78;100.00
76406;BME280;65234;50.044;19.258;2022-11-15T04:58:09;98887.88;;;2.80;100.00
76406;BME280;65234;50.044;19.258;2022-11-15T05:00:35;98886.72;;;2.81;100.00
76406;BME280;65234;50.044;19.258;2022-11-15T05:03:00;98883.75;;;2.86;100.00
76406;BME280;65234;50.044;19.258;2022-11-15T05:05:26;98889.91;;;2.83;100.00
76406;BME280;65234;50.044;19.258;2022-11-15T05:07:52;98890.13;;;2.78;100.00
76406;BME280;65234;50.044;19.258;2022-11-15T05:10:17;98885.34;;;2.87;100.00
76406;BME280;65234;50.044;19.258;2022-11-15T05:12:46;98889.91;;;2.95;100.00
76406;BME280;65234;50.044;19.258;2022-11-15T05:15:12;98885.56;;;2.94;100.00
76406;BME280;65234;50.044;19.258;2022-11-15T05:17:38;98885.78;;;2.89;100.00
76406;BME280;65234;50.044;19.258;2022-11-15T05:20:04;98871.19;;;2.97;100.00
76406;BME280;65234;50.044;19.258;2022-11-15T05:22:30;98872.00;;;2.98;100.00
76406;BME280;65234;50.044;19.258;2022-11-15T05:24:55;98875.09;;;2.96;100.00
76406;BME280;65234;50.044;19.258;2022-11-15T05:27:21;98867.91;;;2.92;100.00
76406;BME280;65234;50.044;19.258;2022-11-15T05:29:48;98870.28;;;2.93;100.00
76406;BME280;65234;50.044;19.258;2022-11-15T05:32:16;98868.00;;;2.95;100.00
76406;BME280;65234;50.044;19.258;2022-11-15T05:34:43;98864.81;;;2.93;100.00
76406;BME280;65234;50.044;19.258;2022-11-15T05:37:09;98856.28;;;2.95;100.00
76406;BME280;65234;50.044;19.258;2022-11-15T05:39:35;98859.34;;;2.93;100.00
76406;BME280;65234;50.044;19.258;2022-11-15T05:42:04;98854.78;;;2.97;100.00
76406;BME280;65234;50.044;19.258;2022-11-15T05:44:32;98845.13;;;2.88;100.00
76406;BME280;65234;50.044;19.258;2022-11-15T05:47:02;98854.47;;;2.87;100.00
76406;BME280;65234;50.044;19.258;2022-11-15T05:49:31;98857.53;;;2.85;100.00
76406;BME280;65234;50.044;19.258;2022-11-15T05:52:02;98850.22;;;2.89;100.00
76406;BME280;65234;50.044;19.258;2022-11-15T05:54:31;98852.53;;;2.87;100.00
76406;BME280;65234;50.044;19.258;2022-11-15T05:56:57;98844.88;;;2.93;100.00
76406;BME280;65234;50.044;19.258;2022-11-15T05:59:23;98850.47;;;2.96;100.00
76406;BME280;65234;50.044;19.258;2022-11-15T06:01:49;98847.84;;;3.00;100.00
76406;BME280;65234;50.044;19.258;2022-11-15T06:04:16;98850.81;;;2.95;100.00
76406;BME280;65234;50.044;19.258;2022-11-15T06:06:42;98848.75;;;2.92;100.00
76406;BME280;65234;50.044;19.258;2022-11-15T06:09:07;98854.56;;;2.90;100.00
76406;BME280;65234;50.044;19.258;2022-11-15T06:11:33;98846.59;;;2.85;100.00
76406;BME280;65234;50.044;19.258;2022-11-15T06:13:59;98849.69;;;2.83;100.00
76406;BME280;65234;50.044;19.258;2022-11-15T06:16:24;98849.22;;;2.81;100.00
76406;BME280;65234;50.044;19.258;2022-11-15T06:18:50;98854.47;;;2.87;100.00
76406;BME280;65234;50.044;19.258;2022-11-15T06:21:17;98845.13;;;2.88;100.00
76406;BME280;65234;50.044;19.258;2022-11-15T06:23:43;98850.94;;;2.86;100.00
76406;BME280;65234;50.044;19.258;2022-11-15T06:26:09;98848.88;;;2.83;100.00
76406;BME280;65234;50.044;19.258;2022-11-15T06:28:34;98847.38;;;2.85;100.00
76406;BME280;65234;50.044;19.258;2022-11-15T06:31:02;98850.81;;;2.82;100.00
76406;BME280;65234;50.044;19.258;2022-11-15T06:33:28;98845.44;;;2.86;100.00
76406;BME280;65234;50.044;19.258;2022-11-15T06:35:54;98852.63;;;2.91;100.00
76406;BME280;65234;50.044;19.258;2022-11-15T06:38:21;98857.78;;;2.92;100.00
76406;BME280;65234;50.044;19.258;2022-11-15T06:40:47;98864.91;;;2.97;100.00
76406;BME280;65234;50.044;19.258;2022-11-15T06:43:13;98863.19;;;3.04;100.00
76406;BME280;65234;50.044;19.258;2022-11-15T06:45:38;98869.72;;;3.00;100.00
76406;BME280;65234;50.044;19.258;2022-11-15T06:48:05;98869.63;;;2.96;100.00
76406;BME280;65234;50.044;19.258;2022-11-15T06:50:31;98864.81;;;2.93;100.00
76406;BME280;65234;50.044;19.258;2022-11-15T06:53:01;98860.97;;;2.82;100.00
76406;BME280;65234;50.044;19.258;2022-11-15T06:55:28;98862.69;;;2.74;100.00
76406;BME280;65234;50.044;19.258;2022-11-15T06:57:53;98869.16;;;2.82;100.00
76406;BME280;65234;50.044;19.258;2022-11-15T07:00:20;98868.94;;;2.87;100.00
76406;BME280;65234;50.044;19.258;2022-11-15T07:02:46;98856.88;;;2.88;100.00
76406;BME280;65234;50.044;19.258;2022-11-15T07:05:13;98861.53;;;2.88;100.00
76406;BME280;65234;50.044;19.258;2022-11-15T07:07:39;98856.88;;;2.88;100.00
76406;BME280;65234;50.044;19.258;2022-11-15T07:10:07;98858.22;;;2.94;100.00
76406;BME280;65234;50.044;19.258;2022-11-15T07:12:34;98867.78;;;3.00;100.00
76406;BME280;65234;50.044;19.258;2022-11-15T07:15:00;98863.78;;;2.98;100.00
76406;BME280;65234;50.044;19.258;2022-11-15T07:17:26;98875.19;;;3.00;100.00
76406;BME280;65234;50.044;19.258;2022-11-15T07:19:51;98872.78;;;2.98;100.00
76406;BME280;65234;50.044;19.258;2022-11-15T07:22:17;98875.44;;;2.95;100.00
76406;BME280;65234;50.044;19.258;2022-11-15T07:24:43;98874.19;;;2.92;100.00
76406;BME280;65234;50.044;19.258;2022-11-15T07:27:08;98869.94;;;2.95;100.00
76406;BME280;65234;50.044;19.258;2022-11-15T07:29:36;98864.59;;;2.98;100.00
76406;BME280;65234;50.044;19.258;2022-11-15T07:32:01;98863.78;;;2.98;100.00
76406;BME280;65234;50.044;19.258;2022-11-15T07:34:27;98863.31;;;3.08;100.00
76406;BME280;65234;50.044;19.258;2022-11-15T07:36:53;98859.53;;;3.12;100.00
76406;BME280;65234;50.044;19.258;2022-11-15T07:39:19;98865.66;;;3.21;100.00
76406;BME280;65234;50.044;19.258;2022-11-15T07:41:44;98872.25;;;3.32;100.00
76406;BME280;65234;50.044;19.258;2022-11-15T07:44:10;98862.66;;;3.39;100.00
76406;BME280;65234;50.044;19.258;2022-11-15T07:46:37;98870.38;;;3.49;100.00
76406;BME280;65234;50.044;19.258;2022-11-15T07:49:03;98866.50;;;3.50;100.00
76406;BME280;65234;50.044;19.258;2022-11-15T07:51:28;98862.59;;;3.51;100.00
76406;BME280;65234;50.044;19.258;2022-11-15T07:53:54;98860.81;;;3.43;100.00
76406;BME280;65234;50.044;19.258;2022-11-15T07:56:20;98853.84;;;3.45;100.00
76406;BME280;65234;50.044;19.258;2022-11-15T07:58:46;98860.78;;;3.55;100.00
76406;BME280;65234;50.044;19.258;2022-11-15T08:01:11;98858.94;;;3.59;100.00
76406;BME280;65234;50.044;19.258;2022-11-15T08:03:38;98860.50;;;3.60;100.00
76406;BME280;65234;50.044;19.258;2022-11-15T08:06:04;98857.41;;;3.33;100.00
76406;BME280;65234;50.044;19.258;2022-11-15T08:08:30;98861.78;;;3.22;100.00
76406;BME280;65234;50.044;19.258;2022-11-15T08:10:57;98857.34;;;3.18;100.00
76406;BME280;65234;50.044;19.258;2022-11-15T08:13:23;98853.44;;;3.31;100.00
76406;BME280;65234;50.044;19.258;2022-11-15T08:15:48;98863.19;;;3.44;100.00
76406;BME280;65234;50.044;19.258;2022-11-15T08:18:15;98853.84;;;3.45;100.00
76406;BME280;65234;50.044;19.258;2022-11-15T08:20:43;98849.44;;;3.56;100.00
76406;BME280;65234;50.044;19.258;2022-11-15T08:23:10;98844.25;;;3.51;100.00
76406;BME280;65234;50.044;19.258;2022-11-15T08:25:37;98845.56;;;3.57;100.00
76406;BME280;65234;50.044;19.258;2022-11-15T08:28:04;98849.94;;;3.74;100.00
76406;BME280;65234;50.044;19.258;2022-11-15T08:30:31;98849.94;;;3.74;100.00
76406;BME280;65234;50.044;19.258;2022-11-15T08:33:00;98847.50;;;3.57;100.00
76406;BME280;65234;50.044;19.258;2022-11-15T08:35:25;98849.34;;;3.53;100.00
76406;BME280;65234;50.044;19.258;2022-11-15T08:37:53;98843.53;;;3.54;100.00
76406;BME280;65234;50.044;19.258;2022-11-15T08:40:19;98846.97;;;3.51;100.00
76406;BME280;65234;50.044;19.258;2022-11-15T08:42:45;98843.16;;;3.56;100.00
76406;BME280;65234;50.044;19.258;2022-11-15T08:45:12;98843.97;;;3.56;100.00
76406;BME280;65234;50.044;19.258;2022-11-15T08:47:38;98858.94;;;3.59;100.00
76406;BME280;65234;50.044;19.258;2022-11-15T08:50:05;98846.59;;;3.80;100.00
76406;BME280;65234;50.044;19.258;2022-11-15T08:52:31;98852.00;;;3.93;100.00
76406;BME280;65234;50.044;19.258;2022-11-15T08:54:58;98854.50;;;3.98;100.00
76406;BME280;65234;50.044;19.258;2022-11-15T08:57:24;98848.66;;;4.15;100.00
76406;BME280;65234;50.044;19.258;2022-11-15T08:59:49;98852.09;;;4.27;100.00
76406;BME280;65234;50.044;19.258;2022-11-15T09:02:16;98853.53;;;4.21;100.00
76406;BME280;65234;50.044;19.258;2022-11-15T09:04:42;98856.53;;;4.32;100.00
76406;BME280;65234;50.044;19.258;2022-11-15T09:07:08;98852.09;;;4.27;100.00
76406;BME280;65234;50.044;19.258;2022-11-15T09:09:34;98852.56;;;4.30;100.00
76406;BME280;65234;50.044;19.258;2022-11-15T09:12:02;98857.00;;;4.34;100.00
76406;BME280;65234;50.044;19.258;2022-11-15T09:14:28;98847.78;;;4.42;100.00
76406;BME280;65234;50.044;19.258;2022-11-15T09:16:54;98852.16;;;4.62;100.00
76406;BME280;65234;50.044;19.258;2022-11-15T09:19:19;98845.63;;;4.67;100.00
76406;BME280;65234;50.044;19.258;2022-11-15T09:21:45;98840.03;;;4.79;100.00
76406;BME280;65234;50.044;19.258;2022-11-15T09:24:11;98846.38;;;4.83;100.00
76406;BME280;65234;50.044;19.258;2022-11-15T09:26:36;98838.28;;;4.71;100.00
76406;BME280;65234;50.044;19.258;2022-11-15T09:29:03;98839.16;;;4.75;100.00
76406;BME280;65234;50.044;19.258;2022-11-15T09:31:29;98835.34;;;4.80;100.00
76406;BME280;65234;50.044;19.258;2022-11-15T09:33:55;98827.63;;;4.85;100.00
76406;BME280;65234;50.044;19.258;2022-11-15T09:36:21;98825.75;;;4.89;100.00
76406;BME280;65234;50.044;19.258;2022-11-15T09:38:46;98816.94;;;4.99;100.00
76406;BME280;65234;50.044;19.258;2022-11-15T09:44:29;98810.03;;;5.25;100.00
76406;BME280;65234;50.044;19.258;2022-11-15T09:47:08;98810.09;;;5.47;100.00
76406;BME280;65234;50.044;19.258;2022-11-15T09:49:38;98805.47;;;5.51;100.00
76406;BME280;65234;50.044;19.258;2022-11-15T09:52:06;98800.97;;;5.62;100.00
76406;BME280;65234;50.044;19.258;2022-11-15T09:54:35;98789.53;;;5.80;100.00
76406;BME280;65234;50.044;19.258;2022-11-15T09:57:05;98783.94;;;5.95;100.00
76406;BME280;65234;50.044;19.258;2022-11-15T09:59:51;98782.22;;;6.10;100.00
76406;BME280;65234;50.044;19.258;2022-11-15T10:02:31;98777.81;;;6.05;100.00
76406;BME280;65234;50.044;19.258;2022-11-15T10:04:59;98778.13;;;6.23;100.00
76406;BME280;65234;50.044;19.258;2022-11-15T10:07:28;98765.31;;;6.34;100.00
76406;BME280;65234;50.044;19.258;2022-11-15T10:10:00;98759.13;;;6.41;100.00
76406;BME280;65234;50.044;19.258;2022-11-15T10:12:30;98758.47;;;6.47;100.00
76406;BME280;65234;50.044;19.258;2022-11-15T10:15:01;98753.38;;;6.49;100.00
76406;BME280;65234;50.044;19.258;2022-11-15T10:17:49;98749.78;;;6.45;100.00
76406;BME280;65234;50.044;19.258;2022-11-15T10:20:23;98749.72;;;6.42;100.00
76406;BME280;65234;50.044;19.258;2022-11-15T10:22:50;98748.91;;;6.41;100.00
76406;BME280;65234;50.044;19.258;2022-11-15T10:25:19;98753.22;;;6.39;100.00
76406;BME280;65234;50.044;19.258;2022-11-15T10:27:52;98755.13;;;6.35;100.00
76406;BME280;65234;50.044;19.258;2022-11-15T10:30:20;98742.25;;;6.16;100.00
76406;BME280;65234;50.044;19.258;2022-11-15T10:32:47;98740.72;;;6.19;100.00
76406;BME280;65234;50.044;19.258;2022-11-15T10:35:18;98739.56;;;6.20;100.00
76406;BME280;65234;50.044;19.258;2022-11-15T10:37:45;98738.50;;;6.28;100.00
76406;BME280;65234;50.044;19.258;2022-11-15T10:40:16;98736.97;;;6.30;100.00
76406;BME280;65234;50.044;19.258;2022-11-15T10:42:42;98736.91;;;6.27;100.00
76406;BME280;65234;50.044;19.258;2022-11-15T10:45:24;98729.06;;;6.29;100.00
76406;BME280;65234;50.044;19.258;2022-11-15T10:47:51;98729.91;;;6.33;100.00
76406;BME280;65234;50.044;19.258;2022-11-15T10:50:28;98728.97;;;6.22;100.00
76406;BME280;65234;50.044;19.258;2022-11-15T10:52:56;98720.31;;;6.20;100.00
76406;BME280;65234;50.044;19.258;2022-11-15T10:55:25;98719.94;;;6.21;100.00
76406;BME280;65234;50.044;19.258;2022-11-15T10:57:54;98714.00;;;6.19;100.00
76406;BME280;65234;50.044;19.258;2022-11-15T11:00:30;98710.56;;;6.26;100.00
76406;BME280;65234;50.044;19.258;2022-11-15T11:02:59;98714.00;;;6.19;100.00
76406;BME280;65234;50.044;19.258;2022-11-15T11:05:27;98705.47;;;6.24;100.00
76406;BME280;65234;50.044;19.258;2022-11-15T11:07:57;98704.00;;;6.34;100.00
76406;BME280;65234;50.044;19.258;2022-11-15T11:10:22;98691.16;;;6.41;100.00
76406;BME280;65234;50.044;19.258;2022-11-15T11:12:48;98690.78;;;6.43;100.00
76406;BME280;65234;50.044;19.258;2022-11-15T11:15:15;98683.09;;;6.55;100.00
76406;BME280;65234;50.044;19.258;2022-11-15T11:17:54;98686.81;;;6.70;100.00
76406;BME280;65234;50.044;19.258;2022-11-15T11:20:26;98682.59;;;6.80;100.00
76406;BME280;65234;50.044;19.258;2022-11-15T11:23:03;98681.84;;;6.79;100.00
76406;BME280;65234;50.044;19.258;2022-11-15T11:25:34;98674.50;;;6.90;100.00
76406;BME280;65234;50.044;19.258;2022-11-15T11:28:17;98666.38;;;7.04;100.00
76406;BME280;65234;50.044;19.258;2022-11-15T11:30:57;98670.50;;;7.21;100.00
76406;BME280;65234;50.044;19.258;2022-11-15T11:33:31;98670.16;;;7.23;100.00
76406;BME280;65234;50.044;19.258;2022-11-15T11:36:08;98668.69;;;7.36;100.00
76406;BME280;65234;50.044;19.258;2022-11-15T11:38:44;98667.19;;;7.42;100.00
76406;BME280;65234;50.044;19.258;2022-11-15T11:41:20;98675.06;;;7.43;100.00
76406;BME280;65234;50.044;19.258;2022-11-15T11:44:02;98673.06;;;7.40;100.00
76406;BME280;65234;50.044;19.258;2022-11-15T11:46:47;98655.72;;;7.40;100.00
76406;BME280;65234;50.044;19.258;2022-11-15T11:49:18;98653.81;;;7.44;100.00
76406;BME280;65234;50.044;19.258;2022-11-15T11:51:50;98643.53;;;7.41;100.00
76406;BME280;65234;50.044;19.258;2022-11-15T11:54:20;98646.38;;;7.48;100.00
76406;BME280;65234;50.044;19.258;2022-11-15T11:56:48;98638.91;;;7.52;100.00
76406;BME280;65234;50.044;19.258;2022-11-15T11:59:21;98646.06;;;7.56;100.00
76406;BME280;65234;50.044;19.258;2022-11-15T12:01:51;98643.28;;;7.56;100.00
76406;BME280;65234;50.044;19.258;2022-11-15T12:04:21;98646.91;;;7.64;100.00
76406;BME280;65234;50.044;19.258;2022-11-15T12:06:53;98635.47;;;7.62;100.00
76406;BME280;65234;50.044;19.258;2022-11-15T12:09:26;98630.78;;;7.66;100.00
76406;BME280;65234;50.044;19.258;2022-11-15T12:11:57;98626.00;;;7.59;100.00
76406;BME280;65234;50.044;19.258;2022-11-15T12:14:29;98621.25;;;7.56;100.00
76406;BME280;65234;50.044;19.258;2022-11-15T12:16:57;98624.81;;;7.61;100.00
76406;BME280;65234;50.044;19.258;2022-11-15T12:19:25;98620.50;;;7.63;100.00
76406;BME280;65234;50.044;19.258;2022-11-15T12:21:55;98620.53;;;7.67;100.00
76406;BME280;65234;50.044;19.258;2022-11-15T12:24:27;98607.13;;;7.62;100.00
76406;BME280;65234;50.044;19.258;2022-11-15T12:26:57;98611.50;;;7.66;100.00
76406;BME280;65234;50.044;19.258;2022-11-15T12:29:29;98611.09;;;7.68;100.00
76406;BME280;65234;50.044;19.258;2022-11-15T12:31:57;98607.16;;;7.65;100.00
76406;BME280;65234;50.044;19.258;2022-11-15T12:34:39;98591.44;;;7.69;100.00
76406;BME280;65234;50.044;19.258;2022-11-15T12:40:21;98592.25;;;7.73;100.00
76406;BME280;65234;50.044;19.258;2022-11-15T12:43:05;98590.31;;;7.77;100.00
76406;BME280;65234;50.044;19.258;2022-11-15T12:45:52;98580.47;;;7.83;100.00
76406;BME280;65234;50.044;19.258;2022-11-15T12:48:46;98582.88;;;7.88;100.00
76406;BME280;65234;50.044;19.258;2022-11-15T12:51:12;98577.44;;;7.99;100.00
76406;BME280;65234;50.044;19.258;2022-11-15T12:53:38;98572.34;;;8.04;100.00
76406;BME280;65234;50.044;19.258;2022-11-15T12:56:24;98573.16;;;8.05;100.00
76406;BME280;65234;50.044;19.258;2022-11-15T12:58:55;98558.59;;;8.12;100.00
76406;BME280;65234;50.044;19.258;2022-11-15T13:01:57;98553.50;;;8.17;100.00
76406;BME280;65234;50.044;19.258;2022-11-15T13:04:27;98551.94;;;8.20;100.00